createdAt,value
2023-04-08T00:00:36.965Z,97422.97
2023-04-08T00:02:39.681Z,97422.22
2023-04-08T00:04:42.575Z,97424.00
2023-04-08T00:06:45.438Z,97423.06
2023-04-08T00:08:48.140Z,97423.00
2023-04-08T00:10:50.995Z,97420.28
2023-04-08T00:12:53.569Z,97423.59
2023-04-08T00:14:58.010Z,97421.03
2023-04-08T00:17:00.698Z,97429.66
2023-04-08T00:19:03.345Z,97427.88
2023-04-08T00:21:05.995Z,97424.34
2023-04-08T00:23:08.619Z,97430.38
2023-04-08T00:25:11.163Z,97430.31
2023-04-08T00:27:13.709Z,97425.94
2023-04-08T00:29:16.258Z,97421.47
2023-04-08T00:31:20.620Z,97426.75
2023-04-08T00:33:24.848Z,97426.81
2023-04-08T00:35:27.558Z,97432.22
2023-04-08T00:37:30.099Z,97430.69
2023-04-08T00:39:32.668Z,97431.63
2023-04-08T00:41:35.760Z,97431.50
2023-04-08T00:43:38.338Z,97424.47
2023-04-08T00:45:40.883Z,97421.69
2023-04-08T00:47:44.853Z,97429.13
2023-04-08T00:49:47.451Z,97426.75
2023-04-08T00:51:49.987Z,97426.81
2023-04-08T00:53:52.529Z,97421.59
2023-04-08T00:55:55.149Z,97428.22
2023-04-08T00:57:58.205Z,97424.09
2023-04-08T01:00:01.049Z,97428.44
2023-04-08T01:02:13.717Z,97421.88
2023-04-08T01:04:27.715Z,97425.59
2023-04-08T01:06:35.206Z,97429.16
2023-04-08T01:08:41.141Z,97430.78
2023-04-08T01:10:45.953Z,97429.88
2023-04-08T01:12:52.791Z,97438.72
2023-04-08T01:15:01.476Z,97448.34
2023-04-08T01:17:05.668Z,97437.94
2023-04-08T01:19:09.819Z,97443.16
2023-04-08T01:21:15.855Z,97437.78
2023-04-08T01:23:24.416Z,97441.16
2023-04-08T01:25:32.644Z,97439.56
2023-04-08T01:27:37.498Z,97448.25
2023-04-08T01:29:41.361Z,97444.81
2023-04-08T01:31:45.329Z,97438.75
2023-04-08T01:33:50.081Z,97437.84
2023-04-08T01:35:54.029Z,97436.00
2023-04-08T01:37:57.645Z,97436.88
2023-04-08T01:40:01.826Z,97438.59
2023-04-08T01:42:05.440Z,97435.94
2023-04-08T01:44:10.263Z,97437.63
2023-04-08T01:46:14.629Z,97431.56
2023-04-08T01:48:17.424Z,97429.41
2023-04-08T01:50:21.269Z,97431.34
2023-04-08T01:52:26.411Z,97432.28
2023-04-08T01:54:29.004Z,97432.28
2023-04-08T01:56:34.298Z,97435.69
2023-04-08T01:58:40.539Z,97434.81
2023-04-08T02:00:45.429Z,97438.25
2023-04-08T02:02:49.095Z,97427.81
2023-04-08T02:04:51.928Z,97428.69
2023-04-08T02:06:54.692Z,97429.56
2023-04-08T02:08:57.727Z,97435.56
2023-04-08T02:11:00.304Z,97433.91
2023-04-08T02:13:03.413Z,97435.63
2023-04-08T02:15:07.051Z,97440.81
2023-04-08T02:17:14.628Z,97437.31
2023-04-08T02:19:27.013Z,97432.97
2023-04-08T02:21:37.435Z,97441.59
2023-04-08T02:23:42.317Z,97435.56
2023-04-08T02:25:47.761Z,97434.66
2023-04-08T02:27:52.835Z,97437.41
2023-04-08T02:29:58.031Z,97440.91
2023-04-08T02:32:03.161Z,97439.16
2023-04-08T02:34:09.273Z,97445.19
2023-04-08T02:36:13.352Z,97444.31
2023-04-08T02:38:16.215Z,97439.09
2023-04-08T02:40:29.797Z,97443.44
2023-04-08T02:42:32.349Z,97434.81
2023-04-08T02:44:34.907Z,97437.38
2023-04-08T02:46:37.445Z,97446.03
2023-04-08T02:48:40.019Z,97440.84
2023-04-08T02:50:46.941Z,97446.03
2023-04-08T02:52:49.475Z,97440.84
2023-04-08T02:54:52.010Z,97447.78
2023-04-08T02:56:54.634Z,97446.03
2023-04-08T02:58:57.188Z,97453.78
2023-04-08T03:00:59.821Z,97449.38
2023-04-08T03:03:02.570Z,97450.31
2023-04-08T03:05:06.481Z,97451.25
2023-04-08T03:07:10.390Z,97449.47
2023-04-08T03:09:12.929Z,97446.06
2023-04-08T03:11:15.454Z,97447.81
2023-04-08T03:13:18.455Z,97448.75
2023-04-08T03:15:21.224Z,97445.28
2023-04-08T03:17:23.817Z,97449.66
2023-04-08T03:19:26.369Z,97447.00
2023-04-08T03:21:31.669Z,97449.63
2023-04-08T03:23:35.740Z,97447.88
2023-04-08T03:25:38.392Z,97453.97
2023-04-08T03:27:40.996Z,97450.50
2023-04-08T03:29:45.716Z,97450.50
2023-04-08T03:31:48.375Z,97455.69
2023-04-08T03:33:51.091Z,97453.91
2023-04-08T03:35:54.829Z,97459.13
2023-04-08T03:37:57.448Z,97453.09
2023-04-08T03:40:01.774Z,97453.84
2023-04-08T03:42:04.611Z,97458.22
2023-04-08T03:44:07.250Z,97457.38
2023-04-08T03:46:09.839Z,97456.50
2023-04-08T03:48:12.418Z,97451.31
2023-04-08T03:50:14.971Z,97446.09
2023-04-08T03:52:17.501Z,97453.09
2023-04-08T03:54:20.087Z,97457.38
2023-04-08T03:56:25.068Z,97459.13
2023-04-08T03:58:27.682Z,97448.00
2023-04-08T04:00:30.222Z,97449.75
2023-04-08T04:02:32.880Z,97453.25
2023-04-08T04:04:36.904Z,97455.91
2023-04-08T04:06:39.571Z,97456.81
2023-04-08T04:08:42.125Z,97446.41
2023-04-08T04:10:44.725Z,97449.06
2023-04-08T04:12:48.719Z,97449.97
2023-04-08T04:14:51.386Z,97450.19
2023-04-08T04:16:53.974Z,97455.28
2023-04-08T04:18:56.562Z,97449.38
2023-04-08T04:20:59.145Z,97453.81
2023-04-08T04:23:01.749Z,97452.31
2023-04-08T04:25:04.352Z,97454.91
2023-04-08T04:27:09.783Z,97455.13
2023-04-08T04:29:13.657Z,97452.56
2023-04-08T04:31:20.712Z,97454.25
2023-04-08T04:33:23.343Z,97457.84
2023-04-08T04:35:25.943Z,97463.63
2023-04-08T04:37:28.561Z,97457.00
2023-04-08T04:39:31.096Z,97461.56
2023-04-08T04:41:35.214Z,97460.81
2023-04-08T04:43:37.822Z,97459.88
2023-04-08T04:45:41.806Z,97455.78
2023-04-08T04:47:44.358Z,97466.31
2023-04-08T04:49:47.441Z,97463.72
2023-04-08T04:51:50.221Z,97467.19
2023-04-08T04:53:52.770Z,97460.34
2023-04-08T04:55:55.473Z,97458.59
2023-04-08T04:57:58.028Z,97463.78
2023-04-08T05:00:01.351Z,97468.94
2023-04-08T05:02:06.707Z,97473.28
2023-04-08T05:04:09.457Z,97475.66
2023-04-08T05:06:12.321Z,97472.78
2023-04-08T05:08:14.838Z,97476.44
2023-04-08T05:10:17.358Z,97473.97
2023-04-08T05:12:20.617Z,97470.59
2023-04-08T05:14:23.176Z,97471.44
2023-04-08T05:16:25.808Z,97480.09
2023-04-08T05:18:29.694Z,97481.69
2023-04-08T05:20:32.324Z,97486.84
2023-04-08T05:22:35.406Z,97491.06
2023-04-08T05:24:37.956Z,97487.50
2023-04-08T05:26:40.591Z,97486.59
2023-04-08T05:28:44.476Z,97490.91
2023-04-08T05:30:50.528Z,97486.47
2023-04-08T05:32:53.209Z,97497.78
2023-04-08T05:34:57.257Z,97490.88
2023-04-08T05:36:59.850Z,97488.25
2023-04-08T05:39:03.463Z,97491.66
2023-04-08T05:41:06.341Z,97494.25
2023-04-08T05:43:08.897Z,97495.94
2023-04-08T05:45:12.158Z,97503.75
2023-04-08T05:47:14.866Z,97503.50
2023-04-08T05:49:18.222Z,97505.44
2023-04-08T05:51:22.091Z,97508.03
2023-04-08T05:53:25.392Z,97510.63
2023-04-08T05:55:28.165Z,97508.03
2023-04-08T05:57:33.460Z,97504.53
2023-04-08T05:59:36.224Z,97507.06
2023-04-08T06:01:40.881Z,97511.03
2023-04-08T06:03:43.700Z,97516.41
2023-04-08T06:05:46.508Z,97512.31
2023-04-08T06:07:50.485Z,97520.53
2023-04-08T06:09:53.112Z,97518.97
2023-04-08T06:11:57.417Z,97520.72
2023-04-08T06:14:00.199Z,97524.28
2023-04-08T06:16:12.613Z,97522.53
2023-04-08T06:18:15.226Z,97519.94
2023-04-08T06:20:17.780Z,97525.13
2023-04-08T06:22:20.351Z,97529.44
2023-04-08T06:24:24.325Z,97525.03
2023-04-08T06:26:27.747Z,97526.69
2023-04-08T06:28:30.768Z,97524.03
2023-04-08T06:30:33.339Z,97534.28
2023-04-08T06:32:35.918Z,97530.97
2023-04-08T06:34:38.526Z,97531.84
2023-04-08T06:36:41.536Z,97534.50
2023-04-08T06:38:44.098Z,97538.00
2023-04-08T06:40:48.003Z,97543.25
2023-04-08T06:42:50.615Z,97546.72
2023-04-08T06:44:53.208Z,97547.53
2023-04-08T06:46:55.962Z,97545.81
2023-04-08T06:48:58.519Z,97548.34
2023-04-08T06:51:02.012Z,97544.84
2023-04-08T06:53:04.562Z,97543.97
2023-04-08T06:55:07.656Z,97543.97
2023-04-08T06:57:11.709Z,97543.16
2023-04-08T06:59:14.237Z,97542.28
2023-04-08T07:01:17.732Z,97544.91
2023-04-08T07:03:20.340Z,97541.41
2023-04-08T07:05:22.920Z,97544.91
2023-04-08T07:07:25.587Z,97543.13
2023-04-08T07:09:28.347Z,97548.34
2023-04-08T07:11:31.073Z,97549.91
2023-04-08T07:13:34.996Z,97555.19
2023-04-08T07:15:37.552Z,97550.00
2023-04-08T07:17:40.431Z,97553.41
2023-04-08T07:19:44.009Z,97554.19
2023-04-08T07:21:46.931Z,97553.31
2023-04-08T07:23:49.480Z,97566.31
2023-04-08T07:25:52.463Z,97567.16
2023-04-08T07:27:55.022Z,97569.75
2023-04-08T07:29:58.913Z,97570.53
2023-04-08T07:32:01.505Z,97573.19
2023-04-08T07:34:04.072Z,97567.88
2023-04-08T07:36:07.080Z,97571.28
2023-04-08T07:38:11.561Z,97578.19
2023-04-08T07:40:14.190Z,97578.13
2023-04-08T07:42:16.716Z,97574.69
2023-04-08T07:44:19.942Z,97583.31
2023-04-08T07:46:23.938Z,97574.63
2023-04-08T07:48:26.478Z,97585.06
2023-04-08T07:50:29.026Z,97581.66
2023-04-08T07:52:31.689Z,97583.31
2023-04-08T07:54:34.952Z,97578.97
2023-04-08T07:56:40.196Z,97587.59
2023-04-08T07:58:43.564Z,97593.63
2023-04-08T08:00:46.483Z,97593.63
2023-04-08T08:02:50.466Z,97593.59
2023-04-08T08:04:53.403Z,97589.22
2023-04-08T08:06:55.991Z,97584.06
2023-04-08T08:08:58.579Z,97589.28
2023-04-08T08:11:01.109Z,97591.84
2023-04-08T08:13:03.693Z,97582.25
2023-04-08T08:15:07.689Z,97591.78
2023-04-08T08:17:10.244Z,97583.97
2023-04-08T08:19:14.567Z,97587.34
2023-04-08T08:21:17.258Z,97591.59
2023-04-08T08:23:19.858Z,97592.44
2023-04-08T08:25:24.137Z,97594.06
2023-04-08T08:27:28.469Z,97593.16
2023-04-08T08:29:31.007Z,97598.34
2023-04-08T08:31:33.599Z,97592.16
2023-04-08T08:33:36.411Z,97596.44
2023-04-08T08:35:40.317Z,97591.16
2023-04-08T08:37:42.944Z,97599.81
2023-04-08T08:39:45.496Z,97599.88
2023-04-08T08:41:48.104Z,97600.72
2023-04-08T08:43:51.085Z,97597.25
2023-04-08T08:45:54.682Z,97601.56
2023-04-08T08:47:57.448Z,97604.13
2023-04-08T08:50:00.205Z,97606.72
2023-04-08T08:52:04.129Z,97604.97
2023-04-08T08:54:06.686Z,97602.28
2023-04-08T08:58:15.800Z,97604.72
2023-04-08T09:00:18.601Z,97602.78
2023-04-08T09:02:26.832Z,97617.59
2023-04-08T09:04:29.995Z,97615.75
2023-04-08T09:06:32.767Z,97614.03
2023-04-08T09:08:37.943Z,97613.16
2023-04-08T09:10:40.487Z,97613.06
2023-04-08T09:12:55.551Z,97620.00
2023-04-08T09:15:05.438Z,97619.94
2023-04-08T09:17:08.725Z,97626.84
2023-04-08T09:19:12.279Z,97619.91
2023-04-08T09:21:16.848Z,97629.50
2023-04-08T09:23:19.434Z,97623.94
2023-04-08T09:25:26.631Z,97631.09
2023-04-08T09:27:36.229Z,97625.88
2023-04-08T09:29:40.018Z,97620.63
2023-04-08T09:31:42.652Z,97619.69
2023-04-08T09:33:45.269Z,97628.34
2023-04-08T09:35:47.979Z,97629.06
2023-04-08T09:37:51.502Z,97628.06
2023-04-08T09:39:54.106Z,97628.66
2023-04-08T09:42:00.971Z,97631.28
2023-04-08T09:44:05.687Z,97622.59
2023-04-08T09:46:12.532Z,97619.75
2023-04-08T09:48:19.276Z,97617.50
2023-04-08T09:50:26.320Z,97621.03
2023-04-08T09:52:34.440Z,97628.91
2023-04-08T09:54:45.366Z,97622.00
2023-04-08T09:56:52.477Z,97627.97
2023-04-08T09:59:01.110Z,97620.09
2023-04-08T10:01:03.859Z,97626.59
2023-04-08T10:03:12.394Z,97618.72
2023-04-08T10:05:16.861Z,97620.38
2023-04-08T10:07:20.375Z,97615.81
2023-04-08T10:09:23.483Z,97619.28
2023-04-08T10:11:26.217Z,97620.97
2023-04-08T10:13:29.626Z,97617.16
2023-04-08T10:15:34.429Z,97618.91
2023-04-08T10:17:37.152Z,97618.84
2023-04-08T10:19:41.932Z,97619.00
2023-04-08T10:21:48.482Z,97620.06
2023-04-08T10:23:57.619Z,97619.66
2023-04-08T10:26:00.185Z,97619.88
2023-04-08T10:30:52.056Z,97611.47
2023-04-08T10:32:56.361Z,97614.84
2023-04-08T10:34:59.034Z,97601.03
2023-04-08T10:37:02.215Z,97604.47
2023-04-08T10:39:04.968Z,97611.47
2023-04-08T10:41:09.573Z,97610.19
2023-04-08T10:43:13.594Z,97609.81
2023-04-08T10:45:19.284Z,97607.59
2023-04-08T10:47:28.452Z,97604.22
2023-04-08T10:49:35.577Z,97599.78
2023-04-08T10:51:39.502Z,97610.22
2023-04-08T10:53:42.123Z,97608.38
2023-04-08T10:55:44.735Z,97610.91
2023-04-08T10:57:47.358Z,97609.09
2023-04-08T10:59:49.897Z,97603.81
2023-04-08T11:01:52.489Z,97611.56
2023-04-08T11:03:56.689Z,97596.69
2023-04-08T11:05:59.630Z,97601.81
2023-04-08T11:08:02.889Z,97605.16
2023-04-08T11:10:05.995Z,97607.09
2023-04-08T11:12:09.057Z,97602.94
2023-04-08T11:14:12.116Z,97601.34
2023-04-08T11:16:18.476Z,97604.75
2023-04-08T11:18:22.771Z,97605.88
2023-04-08T11:20:26.940Z,97602.38
2023-04-08T11:22:30.945Z,97601.63
2023-04-08T11:24:33.589Z,97607.78
2023-04-08T11:26:37.725Z,97610.56
2023-04-08T11:28:40.479Z,97601.13
2023-04-08T11:30:43.866Z,97602.94
2023-04-08T11:32:46.754Z,97602.13
2023-04-08T11:34:49.583Z,97599.53
2023-04-08T11:36:53.611Z,97605.66
2023-04-08T11:38:56.436Z,97605.59
2023-04-08T11:41:00.979Z,97604.75
2023-04-08T11:43:10.720Z,97609.13
2023-04-08T11:45:14.422Z,97610.94
2023-04-08T11:47:17.154Z,97607.47
2023-04-08T11:49:19.710Z,97606.66
2023-04-08T11:51:22.392Z,97603.22
2023-04-08T11:53:26.975Z,97602.41
2023-04-08T11:55:30.845Z,97609.31
2023-04-08T11:57:33.635Z,97608.47
2023-04-08T11:59:36.329Z,97605.84
2023-04-08T12:01:39.027Z,97611.13
2023-04-08T12:03:55.092Z,97606.78
2023-04-08T12:05:59.549Z,97611.94
2023-04-08T12:08:02.322Z,97616.28
2023-04-08T12:10:07.724Z,97610.25
2023-04-08T12:12:10.247Z,97609.31
2023-04-08T12:14:12.810Z,97609.22
2023-04-08T12:16:15.382Z,97605.78
2023-04-08T12:18:17.977Z,97611.00
2023-04-08T12:20:20.767Z,97605.84
2023-04-08T12:22:23.522Z,97608.38
2023-04-08T12:24:29.426Z,97610.03
2023-04-08T12:26:33.312Z,97609.13
2023-04-08T12:28:36.318Z,97602.31
2023-04-08T12:30:38.934Z,97610.94
2023-04-08T12:32:42.669Z,97612.69
2023-04-08T12:34:45.360Z,97612.69
2023-04-08T12:36:49.140Z,97618.81
2023-04-08T12:38:51.920Z,97615.34
2023-04-08T12:40:55.282Z,97616.22
2023-04-08T12:42:59.175Z,97609.22
2023-04-08T12:45:01.782Z,97617.84
2023-04-08T12:47:04.399Z,97608.34
2023-04-08T12:49:07.274Z,97614.34
2023-04-08T12:51:10.607Z,97609.13
2023-04-08T12:53:13.258Z,97608.22
2023-04-08T12:55:16.280Z,97611.69
2023-04-08T12:57:18.835Z,97609.91
2023-04-08T12:59:22.790Z,97606.34
2023-04-08T13:01:25.666Z,97612.44
2023-04-08T13:03:30.489Z,97606.09
2023-04-08T13:07:42.708Z,97609.66
2023-04-08T13:09:45.922Z,97612.31
2023-04-08T13:11:48.470Z,97613.31
2023-04-08T13:13:51.023Z,97608.09
2023-04-08T13:15:55.171Z,97609.91
2023-04-08T13:17:57.775Z,97605.59
2023-04-08T13:20:00.744Z,97606.47
2023-04-08T13:22:03.300Z,97609.06
2023-04-08T13:24:06.656Z,97606.41
2023-04-08T13:26:12.388Z,97606.13
2023-04-08T13:28:15.568Z,97610.63
2023-04-08T13:30:18.262Z,97606.28
2023-04-08T13:32:22.225Z,97609.03
2023-04-08T13:34:24.791Z,97602.94
2023-04-08T13:36:28.379Z,97612.25
2023-04-08T13:38:30.959Z,97609.03
2023-04-08T13:40:33.481Z,97615.25
2023-04-08T13:42:36.092Z,97611.94
2023-04-08T13:44:39.198Z,97620.63
2023-04-08T13:46:42.298Z,97618.97
2023-04-08T13:48:46.220Z,97618.16
2023-04-08T13:50:49.265Z,97619.19
2023-04-08T13:52:51.816Z,97618.38
2023-04-08T13:54:54.353Z,97616.72
2023-04-08T13:56:57.539Z,97613.78
2023-04-08T13:59:00.477Z,97617.41
2023-04-08T14:01:03.520Z,97615.06
2023-04-08T14:03:06.122Z,97616.13
2023-04-08T14:05:10.430Z,97623.19
2023-04-08T14:07:13.149Z,97614.56
2023-04-08T14:09:15.713Z,97618.25
2023-04-08T14:11:18.299Z,97623.47
2023-04-08T14:13:20.938Z,97625.22
2023-04-08T14:15:23.483Z,97628.69
2023-04-08T14:17:26.168Z,97626.19
2023-04-08T14:19:28.892Z,97623.66
2023-04-08T14:21:32.913Z,97626.19
2023-04-08T14:23:35.788Z,97629.72
2023-04-08T14:25:38.296Z,97626.31
2023-04-08T14:27:54.718Z,97629.78
2023-04-08T14:30:00.381Z,97631.47
2023-04-08T14:32:02.984Z,97622.72
2023-04-08T14:34:05.521Z,97627.94
2023-04-08T14:36:08.413Z,97622.66
2023-04-08T14:38:12.527Z,97620.88
2023-04-08T14:40:15.163Z,97622.66
2023-04-08T14:42:18.339Z,97625.22
2023-04-08T14:44:20.969Z,97622.53
2023-04-08T14:46:24.507Z,97623.47
2023-04-08T14:48:30.559Z,97619.06
2023-04-08T14:50:33.676Z,97616.41
2023-04-08T14:52:36.186Z,97621.56
2023-04-08T14:54:41.120Z,97619.72
2023-04-08T14:56:43.648Z,97618.91
2023-04-08T14:58:46.180Z,97625.69
2023-04-08T15:50:00.062Z,97637.22
2023-04-08T15:52:02.628Z,97646.78
2023-04-08T15:54:05.372Z,97647.63
2023-04-08T15:56:12.813Z,97646.78
2023-04-08T15:58:16.301Z,97648.41
2023-04-08T16:00:18.975Z,97654.50
2023-04-08T16:02:21.826Z,97652.59
2023-04-08T16:04:24.623Z,97655.31
2023-04-08T16:06:28.615Z,97659.66
2023-04-08T16:08:33.242Z,97662.38
2023-04-08T16:10:36.001Z,97658.91
2023-04-08T16:12:38.548Z,97659.75
2023-04-08T16:14:41.129Z,97663.19
2023-04-08T16:16:43.854Z,97670.19
2023-04-08T16:18:48.695Z,97670.34
2023-04-08T16:20:51.382Z,97671.25
2023-04-08T16:22:55.314Z,97668.69
2023-04-08T16:24:58.484Z,97669.53
2023-04-08T16:27:01.026Z,97677.38
2023-04-08T16:29:03.579Z,97674.81
2023-04-08T16:31:06.417Z,97675.63
2023-04-08T16:33:09.067Z,97673.84
2023-04-08T16:35:12.307Z,97673.91
2023-04-08T16:37:15.009Z,97674.75
2023-04-08T16:39:19.086Z,97671.25
2023-04-08T16:41:21.772Z,97678.25
2023-04-08T16:43:24.830Z,97684.34
2023-04-08T16:45:29.631Z,97678.25
2023-04-08T16:47:32.487Z,97692.16
2023-04-08T16:49:35.058Z,97693.13
2023-04-08T16:51:37.578Z,97694.91
2023-04-08T16:53:40.972Z,97698.34
2023-04-08T16:55:44.839Z,97698.34
2023-04-08T16:57:47.560Z,97701.81
2023-04-08T16:59:50.272Z,97701.81
2023-04-08T17:01:52.986Z,97701.88
2023-04-08T17:03:56.164Z,97702.75
2023-04-08T17:06:06.917Z,97700.19
2023-04-08T17:08:09.901Z,97708.00
2023-04-08T17:10:12.560Z,97709.75
2023-04-08T17:12:16.508Z,97710.75
2023-04-08T17:14:19.049Z,97711.66
2023-04-08T17:16:21.668Z,97713.44
2023-04-08T17:18:24.258Z,97711.78
2023-04-08T17:20:27.713Z,97719.56
2023-04-08T17:22:30.260Z,97716.22
2023-04-08T17:24:33.143Z,97719.66
2023-04-08T17:26:41.526Z,97717.09
2023-04-08T17:28:45.412Z,97720.75
2023-04-08T17:30:48.301Z,97720.75
2023-04-08T17:32:50.914Z,97727.72
2023-04-08T17:34:53.688Z,97724.31
2023-04-08T17:36:56.761Z,97723.44
2023-04-08T17:38:59.290Z,97722.59
2023-04-08T17:41:01.833Z,97724.31
2023-04-08T17:43:04.404Z,97726.06
2023-04-08T17:45:09.917Z,97731.31
2023-04-08T17:47:12.480Z,97725.28
2023-04-08T17:49:15.319Z,97725.50
2023-04-08T17:51:19.760Z,97731.63
2023-04-08T17:53:22.333Z,97729.88
2023-04-08T17:55:25.781Z,97735.16
2023-04-08T17:57:28.407Z,97731.69
2023-04-08T17:59:31.069Z,97725.59
2023-04-08T18:01:37.144Z,97731.72
2023-04-08T18:03:39.818Z,97736.94
2023-04-08T18:05:42.504Z,97737.78
2023-04-08T18:07:45.283Z,97741.28
2023-04-08T18:09:48.878Z,97742.19
2023-04-08T18:11:51.408Z,97742.25
2023-04-08T18:13:54.057Z,97744.03
2023-04-08T18:15:56.621Z,97745.78
2023-04-08T18:18:00.682Z,97747.53
2023-04-08T18:20:03.351Z,97752.78
2023-04-08T18:22:05.918Z,97758.94
2023-04-08T18:24:09.309Z,97763.28
2023-04-08T18:26:12.024Z,97761.56
2023-04-08T18:28:17.339Z,97762.44
2023-04-08T18:30:19.947Z,97767.69
2023-04-08T18:32:22.534Z,97770.28
2023-04-08T18:34:26.941Z,97777.25
2023-04-08T18:36:29.505Z,97777.28
2023-04-08T18:38:32.039Z,97777.28
2023-04-08T18:40:34.644Z,97784.28
2023-04-08T18:42:37.173Z,97785.25
2023-04-08T18:44:39.766Z,97783.53
2023-04-08T18:46:42.365Z,97791.44
2023-04-08T18:48:44.969Z,97792.34
2023-04-08T18:50:49.072Z,97794.16
2023-04-08T18:52:51.668Z,97799.44
2023-04-08T18:54:54.594Z,97801.16
2023-04-08T18:56:57.206Z,97796.88
2023-04-08T18:58:59.726Z,97809.03
2023-04-08T19:01:07.866Z,97809.91
2023-04-08T19:03:10.635Z,97810.75
2023-04-08T19:05:13.273Z,97815.97
2023-04-08T19:07:17.814Z,97812.56
2023-04-08T19:09:20.456Z,97812.56
2023-04-08T19:11:26.489Z,97812.56
2023-04-08T19:13:29.160Z,97810.75
2023-04-08T19:15:31.797Z,97823.84
2023-04-08T19:17:34.402Z,97816.94
2023-04-08T19:19:37.052Z,97821.38
2023-04-08T19:21:40.320Z,97823.09
2023-04-08T19:23:44.244Z,97825.66
2023-04-08T19:25:47.305Z,97824.84
2023-04-08T19:27:49.874Z,97831.81
2023-04-08T19:29:52.397Z,97827.50
2023-04-08T19:31:57.233Z,97827.50
2023-04-08T19:33:59.751Z,97829.22
2023-04-08T19:36:02.893Z,97826.66
2023-04-08T19:38:05.679Z,97821.50
2023-04-08T19:40:11.224Z,97819.81
2023-04-08T19:42:13.784Z,97831.06
2023-04-08T19:44:16.621Z,97831.97
2023-04-08T19:46:19.209Z,97828.56
2023-04-08T19:48:21.942Z,97836.38
2023-04-08T19:50:25.419Z,97839.94
2023-04-08T19:52:27.987Z,97835.63
2023-04-08T19:54:30.781Z,97834.78
2023-04-08T19:56:35.289Z,97840.00
2023-04-08T19:58:37.965Z,97840.94
2023-04-08T20:00:40.677Z,97839.16
2023-04-08T20:02:43.414Z,97838.34
2023-04-08T20:04:46.483Z,97833.19
2023-04-08T20:06:49.100Z,97828.88
2023-04-08T20:08:53.625Z,97841.88
2023-04-08T20:10:56.510Z,97835.81
2023-04-08T20:13:00.402Z,97834.09
2023-04-08T20:15:03.245Z,97835.84
2023-04-08T20:17:05.841Z,97845.44
2023-04-08T20:19:08.379Z,97840.25
2023-04-08T20:21:13.999Z,97849.78
2023-04-08T20:23:17.717Z,97843.72
2023-04-08T20:25:23.305Z,97848.97
2023-04-08T20:27:26.376Z,97846.38
2023-04-08T20:29:30.389Z,97848.16
2023-04-08T20:31:34.061Z,97842.94
2023-04-08T20:33:37.654Z,97843.75
2023-04-08T20:35:40.822Z,97844.66
2023-04-08T20:37:43.386Z,97840.34
2023-04-08T20:39:45.932Z,97847.28
2023-04-08T20:41:48.491Z,97849.88
2023-04-08T20:43:52.473Z,97842.13
2023-04-08T20:45:56.392Z,97846.53
2023-04-08T20:47:59.347Z,97849.13
2023-04-08T20:50:01.931Z,97841.31
2023-04-08T20:52:04.612Z,97847.38
2023-04-08T20:54:07.171Z,97851.75
2023-04-08T20:56:12.129Z,97849.16
2023-04-08T20:58:14.672Z,97850.91
2023-04-08T21:00:17.998Z,97854.34
2023-04-08T21:02:22.105Z,97849.19
2023-04-08T21:04:24.749Z,97848.31
2023-04-08T21:06:27.838Z,97846.59
2023-04-08T21:08:30.373Z,97850.09
2023-04-08T21:10:32.926Z,97850.09
2023-04-08T21:12:35.469Z,97847.44
2023-04-08T21:14:37.993Z,97844.88
2023-04-08T21:16:40.663Z,97847.44
2023-04-08T21:18:44.614Z,97846.59
2023-04-08T21:20:49.942Z,97843.97
2023-04-08T21:22:53.812Z,97850.75
2023-04-08T21:24:56.999Z,97843.09
2023-04-08T21:27:11.199Z,97838.00
2023-04-08T21:29:13.927Z,97846.75
2023-04-08T21:31:16.753Z,97846.75
2023-04-08T21:33:27.384Z,97846.75
2023-04-08T21:35:31.509Z,97849.34
2023-04-08T21:37:34.592Z,97844.13
2023-04-08T21:41:52.236Z,97845.88
2023-04-08T21:47:16.275Z,97844.22
2023-04-08T21:49:18.882Z,97847.69
2023-04-08T21:51:22.774Z,97841.63
2023-04-08T21:53:25.483Z,97847.75
2023-04-08T21:55:29.300Z,97847.84
2023-04-08T21:57:31.890Z,97849.59
2023-04-08T21:59:34.449Z,97840.09
2023-04-08T22:01:37.131Z,97841.03
2023-04-08T22:03:39.891Z,97842.75
2023-04-08T22:05:42.476Z,97843.69
2023-04-08T22:07:46.366Z,97849.75
2023-04-08T22:09:48.871Z,97840.28
2023-04-08T22:11:51.394Z,97847.28
2023-04-08T22:13:53.997Z,97844.66
2023-04-08T22:15:56.509Z,97835.16
2023-04-08T22:17:59.117Z,97839.50
2023-04-08T22:20:01.680Z,97838.69
2023-04-08T22:22:04.239Z,97833.50
2023-04-08T22:24:08.192Z,97839.63
2023-04-08T22:26:10.722Z,97838.78
2023-04-08T22:28:13.283Z,97840.56
2023-04-08T22:30:15.957Z,97834.53
2023-04-08T22:32:18.709Z,97835.44
2023-04-08T22:34:21.366Z,97835.44
2023-04-08T22:36:23.887Z,97835.44
2023-04-08T22:38:26.709Z,97830.25
2023-04-08T22:40:30.859Z,97832.84
2023-04-08T22:42:33.457Z,97832.00
2023-04-08T22:44:36.001Z,97832.00
2023-04-08T22:46:38.650Z,97829.38
2023-04-08T22:48:41.655Z,97829.41
2023-04-08T22:50:44.611Z,97825.03
2023-04-08T22:52:47.181Z,97831.09
2023-04-08T22:54:49.753Z,97818.06
2023-04-08T22:56:55.818Z,97825.91
2023-04-08T22:58:58.345Z,97817.28
2023-04-08T23:01:01.829Z,97821.66
2023-04-08T23:03:04.927Z,97817.34
2023-04-08T23:05:08.758Z,97817.44
2023-04-08T23:07:11.374Z,97819.19
2023-04-08T23:09:13.919Z,97824.44
2023-04-08T23:11:16.474Z,97824.44
2023-04-08T23:13:20.844Z,97826.22
2023-04-08T23:15:23.770Z,97823.63
2023-04-08T23:17:26.540Z,97820.16
2023-04-08T23:19:29.074Z,97825.34
2023-04-08T23:21:31.647Z,97825.34
2023-04-08T23:23:34.194Z,97830.69
2023-04-08T23:25:37.124Z,97823.81
2023-04-08T23:27:39.747Z,97826.53
2023-04-08T23:29:43.634Z,97826.59
2023-04-08T23:31:46.207Z,97833.53
2023-04-08T23:33:48.767Z,97822.19
2023-04-08T23:35:51.313Z,97826.59
2023-04-08T23:37:53.864Z,97829.03
2023-04-08T23:39:56.466Z,97836.19
2023-04-08T23:41:59.069Z,97834.66
2023-04-08T23:44:01.624Z,97826.84
2023-04-08T23:46:05.626Z,97826.06
2023-04-08T23:48:10.058Z,97831.25
2023-04-08T23:50:12.891Z,97822.56
2023-04-08T23:52:16.080Z,97823.34
2023-04-08T23:54:18.586Z,97824.25
2023-04-08T23:56:21.472Z,97827.69
2023-04-08T23:58:24.020Z,97829.44
